sensor_id;sensor_type;location;lat;lon;timestamp;P1;durP1;ratioP1;P2;durP2;ratioP2
69937;SDS011;57248;47.320;15.998;2023-03-01T00:00:23;23.20;;;7.03;;
69937;SDS011;57248;47.320;15.998;2023-03-01T00:02:55;22.15;;;7.07;;
69937;SDS011;57248;47.320;15.998;2023-03-01T00:05:27;20.47;;;6.53;;
69937;SDS011;57248;47.320;15.998;2023-03-01T00:07:59;19.23;;;7.30;;
69937;SDS011;57248;47.320;15.998;2023-03-01T00:10:31;26.23;;;7.80;;
69937;SDS011;57248;47.320;15.998;2023-03-01T00:13:03;21.75;;;7.28;;
69937;SDS011;57248;47.320;15.998;2023-03-01T00:15:30;24.23;;;7.20;;
69937;SDS011;57248;47.320;15.998;2023-03-01T00:18:03;20.90;;;7.33;;
69937;SDS011;57248;47.320;15.998;2023-03-01T00:20:35;22.75;;;7.43;;
69937;SDS011;57248;47.320;15.998;2023-03-01T00:23:07;22.42;;;7.90;;
69937;SDS011;57248;47.320;15.998;2023-03-01T00:25:42;22.33;;;7.72;;
69937;SDS011;57248;47.320;15.998;2023-03-01T00:28:15;25.05;;;8.05;;
69937;SDS011;57248;47.320;15.998;2023-03-01T00:30:47;20.73;;;7.57;;
69937;SDS011;57248;47.320;15.998;2023-03-01T00:33:19;25.02;;;8.70;;
69937;SDS011;57248;47.320;15.998;2023-03-01T00:35:51;28.00;;;8.45;;
69937;SDS011;57248;47.320;15.998;2023-03-01T00:38:23;25.13;;;8.32;;
69937;SDS011;57248;47.320;15.998;2023-03-01T00:40:55;23.95;;;7.85;;
69937;SDS011;57248;47.320;15.998;2023-03-01T00:43:27;21.20;;;8.30;;
69937;SDS011;57248;47.320;15.998;2023-03-01T00:46:00;25.08;;;8.45;;
69937;SDS011;57248;47.320;15.998;2023-03-01T00:48:33;26.48;;;8.38;;
69937;SDS011;57248;47.320;15.998;2023-03-01T00:53:50;25.88;;;7.60;;
69937;SDS011;57248;47.320;15.998;2023-03-01T00:56:24;23.67;;;7.90;;
69937;SDS011;57248;47.320;15.998;2023-03-01T00:58:57;26.23;;;9.27;;
69937;SDS011;57248;47.320;15.998;2023-03-01T01:01:29;26.15;;;8.70;;
69937;SDS011;57248;47.320;15.998;2023-03-01T01:04:04;25.38;;;8.77;;
69937;SDS011;57248;47.320;15.998;2023-03-01T01:06:43;24.92;;;8.98;;
69937;SDS011;57248;47.320;15.998;2023-03-01T01:09:16;25.70;;;8.40;;
69937;SDS011;57248;47.320;15.998;2023-03-01T01:11:50;21.08;;;7.70;;
69937;SDS011;57248;47.320;15.998;2023-03-01T01:14:22;23.85;;;7.93;;
69937;SDS011;57248;47.320;15.998;2023-03-01T01:16:54;22.17;;;7.75;;
69937;SDS011;57248;47.320;15.998;2023-03-01T01:19:26;20.80;;;7.60;;
69937;SDS011;57248;47.320;15.998;2023-03-01T01:21:58;21.73;;;7.27;;
69937;SDS011;57248;47.320;15.998;2023-03-01T01:24:30;23.10;;;7.75;;
69937;SDS011;57248;47.320;15.998;2023-03-01T01:27:03;20.08;;;7.30;;
69937;SDS011;57248;47.320;15.998;2023-03-01T01:29:35;22.40;;;6.78;;
69937;SDS011;57248;47.320;15.998;2023-03-01T01:32:07;20.63;;;7.55;;
69937;SDS011;57248;47.320;15.998;2023-03-01T01:34:40;21.00;;;8.13;;
69937;SDS011;57248;47.320;15.998;2023-03-01T01:37:12;20.25;;;6.90;;
69937;SDS011;57248;47.320;15.998;2023-03-01T01:39:44;21.40;;;7.47;;
69937;SDS011;57248;47.320;15.998;2023-03-01T01:42:16;20.98;;;7.38;;
69937;SDS011;57248;47.320;15.998;2023-03-01T01:45:18;22.30;;;7.10;;
69937;SDS011;57248;47.320;15.998;2023-03-01T01:48:03;19.50;;;6.93;;
69937;SDS011;57248;47.320;15.998;2023-03-01T01:50:38;20.52;;;6.78;;
69937;SDS011;57248;47.320;15.998;2023-03-01T01:53:25;20.33;;;6.82;;
69937;SDS011;57248;47.320;15.998;2023-03-01T01:55:58;21.05;;;6.50;;
69937;SDS011;57248;47.320;15.998;2023-03-01T01:58:26;17.98;;;6.32;;
69937;SDS011;57248;47.320;15.998;2023-03-01T02:01:01;17.17;;;6.40;;
69937;SDS011;57248;47.320;15.998;2023-03-01T02:03:34;18.70;;;6.72;;
69937;SDS011;57248;47.320;15.998;2023-03-01T02:06:21;18.83;;;6.63;;
69937;SDS011;57248;47.320;15.998;2023-03-01T02:09:01;24.15;;;7.15;;
69937;SDS011;57248;47.320;15.998;2023-03-01T02:11:38;20.15;;;7.43;;
69937;SDS011;57248;47.320;15.998;2023-03-01T02:14:11;21.27;;;7.70;;
69937;SDS011;57248;47.320;15.998;2023-03-01T02:16:36;20.23;;;7.30;;
69937;SDS011;57248;47.320;15.998;2023-03-01T02:19:09;22.52;;;7.70;;
69937;SDS011;57248;47.320;15.998;2023-03-01T02:21:52;20.37;;;7.20;;
69937;SDS011;57248;47.320;15.998;2023-03-01T02:24:50;20.45;;;6.82;;
69937;SDS011;57248;47.320;15.998;2023-03-01T02:27:40;21.17;;;7.00;;
69937;SDS011;57248;47.320;15.998;2023-03-01T02:30:33;21.60;;;7.18;;
69937;SDS011;57248;47.320;15.998;2023-03-01T02:33:06;18.42;;;7.00;;
69937;SDS011;57248;47.320;15.998;2023-03-01T02:35:38;17.77;;;6.63;;
69937;SDS011;57248;47.320;15.998;2023-03-01T02:38:11;17.95;;;6.60;;
69937;SDS011;57248;47.320;15.998;2023-03-01T02:40:43;20.70;;;7.15;;
69937;SDS011;57248;47.320;15.998;2023-03-01T02:43:16;20.60;;;7.18;;
69937;SDS011;57248;47.320;15.998;2023-03-01T02:45:51;16.73;;;6.43;;
69937;SDS011;57248;47.320;15.998;2023-03-01T02:48:18;19.90;;;7.00;;
69937;SDS011;57248;47.320;15.998;2023-03-01T02:54:04;19.13;;;6.18;;
69937;SDS011;57248;47.320;15.998;2023-03-01T02:56:44;17.52;;;5.95;;
69937;SDS011;57248;47.320;15.998;2023-03-01T02:59:22;18.58;;;6.47;;
69937;SDS011;57248;47.320;15.998;2023-03-01T03:01:58;18.33;;;6.40;;
69937;SDS011;57248;47.320;15.998;2023-03-01T03:04:32;19.67;;;6.68;;
69937;SDS011;57248;47.320;15.998;2023-03-01T03:07:04;19.88;;;6.88;;
69937;SDS011;57248;47.320;15.998;2023-03-01T03:09:36;21.80;;;6.70;;
69937;SDS011;57248;47.320;15.998;2023-03-01T03:12:08;19.33;;;6.65;;
69937;SDS011;57248;47.320;15.998;2023-03-01T03:14:40;16.70;;;5.93;;
69937;SDS011;57248;47.320;15.998;2023-03-01T03:17:12;16.00;;;5.95;;
69937;SDS011;57248;47.320;15.998;2023-03-01T03:19:37;21.40;;;6.67;;
69937;SDS011;57248;47.320;15.998;2023-03-01T03:22:09;18.20;;;6.65;;
69937;SDS011;57248;47.320;15.998;2023-03-01T03:24:41;20.52;;;7.10;;
69937;SDS011;57248;47.320;15.998;2023-03-01T03:27:13;18.83;;;6.57;;
69937;SDS011;57248;47.320;15.998;2023-03-01T03:29:45;21.48;;;6.97;;
69937;SDS011;57248;47.320;15.998;2023-03-01T03:32:17;20.07;;;7.17;;
69937;SDS011;57248;47.320;15.998;2023-03-01T03:34:49;20.20;;;7.63;;
69937;SDS011;57248;47.320;15.998;2023-03-01T03:37:21;20.90;;;7.95;;
69937;SDS011;57248;47.320;15.998;2023-03-01T03:40:11;18.98;;;6.70;;
69937;SDS011;57248;47.320;15.998;2023-03-01T03:42:47;19.40;;;7.05;;
69937;SDS011;57248;47.320;15.998;2023-03-01T03:45:20;20.10;;;6.77;;
69937;SDS011;57248;47.320;15.998;2023-03-01T03:47:52;19.08;;;6.68;;
69937;SDS011;57248;47.320;15.998;2023-03-01T03:50:24;19.85;;;7.75;;
69937;SDS011;57248;47.320;15.998;2023-03-01T03:53:10;18.75;;;7.10;;
69937;SDS011;57248;47.320;15.998;2023-03-01T03:55:44;18.25;;;6.65;;
69937;SDS011;57248;47.320;15.998;2023-03-01T03:58:16;16.17;;;6.33;;
69937;SDS011;57248;47.320;15.998;2023-03-01T04:00:52;16.73;;;6.63;;
69937;SDS011;57248;47.320;15.998;2023-03-01T04:03:27;16.33;;;6.43;;
69937;SDS011;57248;47.320;15.998;2023-03-01T04:06:01;17.90;;;6.65;;
69937;SDS011;57248;47.320;15.998;2023-03-01T04:08:27;18.38;;;6.30;;
69937;SDS011;57248;47.320;15.998;2023-03-01T04:11:00;15.33;;;6.23;;
69937;SDS011;57248;47.320;15.998;2023-03-01T04:13:55;19.63;;;7.03;;
69937;SDS011;57248;47.320;15.998;2023-03-01T04:16:29;16.42;;;6.05;;
69937;SDS011;57248;47.320;15.998;2023-03-01T04:19:01;18.25;;;5.72;;
69937;SDS011;57248;47.320;15.998;2023-03-01T04:21:33;15.98;;;6.38;;
69937;SDS011;57248;47.320;15.998;2023-03-01T04:24:05;18.10;;;6.63;;
69937;SDS011;57248;47.320;15.998;2023-03-01T04:26:38;17.45;;;6.60;;
69937;SDS011;57248;47.320;15.998;2023-03-01T04:29:03;19.27;;;6.37;;
69937;SDS011;57248;47.320;15.998;2023-03-01T04:31:36;22.10;;;6.38;;
69937;SDS011;57248;47.320;15.998;2023-03-01T04:34:08;17.25;;;6.28;;
69937;SDS011;57248;47.320;15.998;2023-03-01T04:36:40;21.17;;;6.22;;
69937;SDS011;57248;47.320;15.998;2023-03-01T04:39:12;20.52;;;6.60;;
69937;SDS011;57248;47.320;15.998;2023-03-01T04:41:44;19.93;;;6.03;;
69937;SDS011;57248;47.320;15.998;2023-03-01T04:44:16;16.67;;;5.93;;
69937;SDS011;57248;47.320;15.998;2023-03-01T04:46:48;19.17;;;7.03;;
69937;SDS011;57248;47.320;15.998;2023-03-01T04:49:21;17.58;;;6.20;;
69937;SDS011;57248;47.320;15.998;2023-03-01T04:51:53;19.08;;;6.60;;
69937;SDS011;57248;47.320;15.998;2023-03-01T04:54:25;18.90;;;6.77;;
69937;SDS011;57248;47.320;15.998;2023-03-01T04:56:58;19.35;;;6.90;;
69937;SDS011;57248;47.320;15.998;2023-03-01T04:59:30;16.65;;;6.15;;
69937;SDS011;57248;47.320;15.998;2023-03-01T05:02:03;17.90;;;6.10;;
69937;SDS011;57248;47.320;15.998;2023-03-01T05:04:35;18.02;;;6.47;;
69937;SDS011;57248;47.320;15.998;2023-03-01T05:07:07;21.53;;;6.53;;
69937;SDS011;57248;47.320;15.998;2023-03-01T05:09:39;17.50;;;6.28;;
69937;SDS011;57248;47.320;15.998;2023-03-01T05:12:11;17.55;;;6.45;;
69937;SDS011;57248;47.320;15.998;2023-03-01T05:14:44;16.30;;;5.75;;
69937;SDS011;57248;47.320;15.998;2023-03-01T05:17:17;19.80;;;6.85;;
69937;SDS011;57248;47.320;15.998;2023-03-01T05:19:49;17.70;;;6.83;;
69937;SDS011;57248;47.320;15.998;2023-03-01T05:22:21;24.13;;;8.15;;
69937;SDS011;57248;47.320;15.998;2023-03-01T05:24:54;21.05;;;7.97;;
69937;SDS011;57248;47.320;15.998;2023-03-01T05:27:20;18.65;;;7.20;;
69937;SDS011;57248;47.320;15.998;2023-03-01T05:29:54;18.10;;;7.07;;
69937;SDS011;57248;47.320;15.998;2023-03-01T05:32:27;20.35;;;7.43;;
69937;SDS011;57248;47.320;15.998;2023-03-01T05:35:03;19.00;;;7.30;;
69937;SDS011;57248;47.320;15.998;2023-03-01T05:37:35;21.40;;;7.85;;
69937;SDS011;57248;47.320;15.998;2023-03-01T05:40:07;22.35;;;8.30;;
69937;SDS011;57248;47.320;15.998;2023-03-01T05:42:48;21.17;;;7.90;;
69937;SDS011;57248;47.320;15.998;2023-03-01T05:45:21;18.83;;;7.22;;
69937;SDS011;57248;47.320;15.998;2023-03-01T05:47:55;17.10;;;6.68;;
69937;SDS011;57248;47.320;15.998;2023-03-01T05:50:25;21.00;;;7.77;;
69937;SDS011;57248;47.320;15.998;2023-03-01T05:55:40;18.30;;;6.78;;
69937;SDS011;57248;47.320;15.998;2023-03-01T05:58:14;20.77;;;6.63;;
69937;SDS011;57248;47.320;15.998;2023-03-01T06:00:48;16.37;;;5.70;;
69937;SDS011;57248;47.320;15.998;2023-03-01T06:03:21;20.38;;;6.50;;
69937;SDS011;57248;47.320;15.998;2023-03-01T06:05:57;17.75;;;6.75;;
69937;SDS011;57248;47.320;15.998;2023-03-01T06:08:30;18.50;;;7.25;;
69937;SDS011;57248;47.320;15.998;2023-03-01T06:11:02;20.75;;;7.50;;
69937;SDS011;57248;47.320;15.998;2023-03-01T06:13:34;23.27;;;7.53;;
69937;SDS011;57248;47.320;15.998;2023-03-01T06:16:06;20.58;;;7.88;;
69937;SDS011;57248;47.320;15.998;2023-03-01T06:18:39;21.10;;;7.38;;
69937;SDS011;57248;47.320;15.998;2023-03-01T06:21:13;19.83;;;7.00;;
69937;SDS011;57248;47.320;15.998;2023-03-01T06:23:38;22.33;;;7.30;;
69937;SDS011;57248;47.320;15.998;2023-03-01T06:26:11;18.93;;;7.33;;
69937;SDS011;57248;47.320;15.998;2023-03-01T06:28:43;20.55;;;7.55;;
69937;SDS011;57248;47.320;15.998;2023-03-01T06:31:17;20.08;;;8.10;;
69937;SDS011;57248;47.320;15.998;2023-03-01T06:33:49;19.73;;;7.85;;
69937;SDS011;57248;47.320;15.998;2023-03-01T06:36:14;21.47;;;7.37;;
69937;SDS011;57248;47.320;15.998;2023-03-01T06:38:50;17.98;;;6.22;;
69937;SDS011;57248;47.320;15.998;2023-03-01T06:41:22;23.00;;;8.48;;
69937;SDS011;57248;47.320;15.998;2023-03-01T06:43:54;22.23;;;8.23;;
69937;SDS011;57248;47.320;15.998;2023-03-01T06:46:26;25.30;;;9.93;;
69937;SDS011;57248;47.320;15.998;2023-03-01T06:48:58;24.23;;;9.23;;
69937;SDS011;57248;47.320;15.998;2023-03-01T06:51:37;24.00;;;9.07;;
69937;SDS011;57248;47.320;15.998;2023-03-01T06:54:09;22.33;;;8.68;;
69937;SDS011;57248;47.320;15.998;2023-03-01T06:56:49;25.37;;;8.93;;
69937;SDS011;57248;47.320;15.998;2023-03-01T06:59:22;23.13;;;9.80;;
69937;SDS011;57248;47.320;15.998;2023-03-01T07:01:54;28.48;;;10.30;;
69937;SDS011;57248;47.320;15.998;2023-03-01T07:04:26;23.58;;;9.70;;
69937;SDS011;57248;47.320;15.998;2023-03-01T07:07:00;22.88;;;9.90;;
69937;SDS011;57248;47.320;15.998;2023-03-01T07:09:33;22.87;;;8.27;;
69937;SDS011;57248;47.320;15.998;2023-03-01T07:12:05;25.30;;;8.60;;
69937;SDS011;57248;47.320;15.998;2023-03-01T07:14:38;21.95;;;8.63;;
69937;SDS011;57248;47.320;15.998;2023-03-01T07:17:10;18.35;;;7.55;;
69937;SDS011;57248;47.320;15.998;2023-03-01T07:19:35;22.17;;;7.90;;
69937;SDS011;57248;47.320;15.998;2023-03-01T07:22:07;21.73;;;8.45;;
69937;SDS011;57248;47.320;15.998;2023-03-01T07:24:42;20.73;;;8.43;;
69937;SDS011;57248;47.320;15.998;2023-03-01T07:27:14;27.93;;;11.70;;
69937;SDS011;57248;47.320;15.998;2023-03-01T07:29:46;29.45;;;11.63;;
69937;SDS011;57248;47.320;15.998;2023-03-01T07:32:18;31.45;;;10.27;;
69937;SDS011;57248;47.320;15.998;2023-03-01T07:34:50;24.90;;;8.35;;
69937;SDS011;57248;47.320;15.998;2023-03-01T07:37:23;26.00;;;9.30;;
69937;SDS011;57248;47.320;15.998;2023-03-01T07:39:55;26.03;;;8.83;;
69937;SDS011;57248;47.320;15.998;2023-03-01T07:42:27;25.40;;;8.82;;
69937;SDS011;57248;47.320;15.998;2023-03-01T07:44:59;23.13;;;8.10;;
69937;SDS011;57248;47.320;15.998;2023-03-01T07:47:31;24.35;;;8.70;;
69937;SDS011;57248;47.320;15.998;2023-03-01T07:50:04;21.35;;;7.90;;
69937;SDS011;57248;47.320;15.998;2023-03-01T07:52:47;23.67;;;7.53;;
69937;SDS011;57248;47.320;15.998;2023-03-01T07:55:20;21.02;;;7.43;;
69937;SDS011;57248;47.320;15.998;2023-03-01T07:57:59;19.60;;;7.47;;
69937;SDS011;57248;47.320;15.998;2023-03-01T08:00:31;19.13;;;7.88;;
69937;SDS011;57248;47.320;15.998;2023-03-01T08:03:03;23.52;;;7.85;;
69937;SDS011;57248;47.320;15.998;2023-03-01T08:05:36;22.73;;;7.53;;
69937;SDS011;57248;47.320;15.998;2023-03-01T08:08:09;19.90;;;7.63;;
69937;SDS011;57248;47.320;15.998;2023-03-01T08:10:41;18.42;;;7.75;;
69937;SDS011;57248;47.320;15.998;2023-03-01T08:13:14;26.05;;;9.65;;
69937;SDS011;57248;47.320;15.998;2023-03-01T08:15:46;44.33;;;15.80;;
69937;SDS011;57248;47.320;15.998;2023-03-01T08:18:19;46.87;;;16.33;;
69937;SDS011;57248;47.320;15.998;2023-03-01T08:20:52;38.80;;;13.88;;
69937;SDS011;57248;47.320;15.998;2023-03-01T08:23:24;28.85;;;11.23;;
69937;SDS011;57248;47.320;15.998;2023-03-01T08:26:07;25.17;;;8.38;;
69937;SDS011;57248;47.320;15.998;2023-03-01T08:28:47;19.50;;;7.28;;
69937;SDS011;57248;47.320;15.998;2023-03-01T08:31:21;19.70;;;8.13;;
69937;SDS011;57248;47.320;15.998;2023-03-01T08:33:57;18.60;;;7.55;;
69937;SDS011;57248;47.320;15.998;2023-03-01T08:36:32;20.60;;;7.50;;
69937;SDS011;57248;47.320;15.998;2023-03-01T08:39:07;21.73;;;8.07;;
69937;SDS011;57248;47.320;15.998;2023-03-01T08:41:41;25.75;;;8.90;;
69937;SDS011;57248;47.320;15.998;2023-03-01T08:44:13;21.70;;;8.07;;
69937;SDS011;57248;47.320;15.998;2023-03-01T08:46:48;20.83;;;7.80;;
69937;SDS011;57248;47.320;15.998;2023-03-01T08:49:21;27.83;;;8.65;;
69937;SDS011;57248;47.320;15.998;2023-03-01T08:52:08;22.08;;;8.07;;
69937;SDS011;57248;47.320;15.998;2023-03-01T08:54:47;21.23;;;7.63;;
69937;SDS011;57248;47.320;15.998;2023-03-01T08:57:20;21.57;;;8.07;;
69937;SDS011;57248;47.320;15.998;2023-03-01T08:59:52;21.15;;;7.85;;
69937;SDS011;57248;47.320;15.998;2023-03-01T09:02:24;20.50;;;7.63;;
69937;SDS011;57248;47.320;15.998;2023-03-01T09:04:56;19.42;;;7.72;;
69937;SDS011;57248;47.320;15.998;2023-03-01T09:07:28;21.50;;;7.70;;
69937;SDS011;57248;47.320;15.998;2023-03-01T09:10:00;22.33;;;7.97;;
69937;SDS011;57248;47.320;15.998;2023-03-01T09:12:32;21.20;;;7.30;;
69937;SDS011;57248;47.320;15.998;2023-03-01T09:15:04;18.67;;;7.28;;
69937;SDS011;57248;47.320;15.998;2023-03-01T09:17:36;20.23;;;7.47;;
69937;SDS011;57248;47.320;15.998;2023-03-01T09:20:01;20.10;;;7.30;;
69937;SDS011;57248;47.320;15.998;2023-03-01T09:22:34;17.38;;;6.93;;
69937;SDS011;57248;47.320;15.998;2023-03-01T09:25:07;18.40;;;7.45;;
69937;SDS011;57248;47.320;15.998;2023-03-01T09:27:39;19.47;;;6.90;;
69937;SDS011;57248;47.320;15.998;2023-03-01T09:30:12;18.58;;;7.68;;
69937;SDS011;57248;47.320;15.998;2023-03-01T09:32:45;17.27;;;7.28;;
69937;SDS011;57248;47.320;15.998;2023-03-01T09:35:17;15.68;;;6.25;;
69937;SDS011;57248;47.320;15.998;2023-03-01T09:37:51;16.70;;;7.07;;
69937;SDS011;57248;47.320;15.998;2023-03-01T09:40:24;17.60;;;7.07;;
69937;SDS011;57248;47.320;15.998;2023-03-01T09:43:06;15.85;;;6.95;;
69937;SDS011;57248;47.320;15.998;2023-03-01T09:45:45;17.13;;;6.57;;
69937;SDS011;57248;47.320;15.998;2023-03-01T09:48:21;15.85;;;6.38;;
69937;SDS011;57248;47.320;15.998;2023-03-01T09:50:56;15.68;;;6.30;;
69937;SDS011;57248;47.320;15.998;2023-03-01T09:53:37;17.63;;;6.60;;
69937;SDS011;57248;47.320;15.998;2023-03-01T09:56:20;19.08;;;6.32;;
69937;SDS011;57248;47.320;15.998;2023-03-01T09:59:15;14.98;;;5.93;;
69937;SDS011;57248;47.320;15.998;2023-03-01T10:01:52;14.60;;;6.10;;
69937;SDS011;57248;47.320;15.998;2023-03-01T10:04:50;14.38;;;5.93;;
69937;SDS011;57248;47.320;15.998;2023-03-01T10:07:43;18.90;;;6.40;;
69937;SDS011;57248;47.320;15.998;2023-03-01T10:10:23;16.10;;;6.45;;
69937;SDS011;57248;47.320;15.998;2023-03-01T10:16:21;15.13;;;6.03;;
69937;SDS011;57248;47.320;15.998;2023-03-01T10:18:58;15.30;;;5.53;;
69937;SDS011;57248;47.320;15.998;2023-03-01T10:21:32;16.63;;;6.93;;
69937;SDS011;57248;47.320;15.998;2023-03-01T10:24:11;17.48;;;6.40;;
69937;SDS011;57248;47.320;15.998;2023-03-01T10:26:53;18.20;;;7.00;;
69937;SDS011;57248;47.320;15.998;2023-03-01T10:29:34;17.88;;;6.75;;
69937;SDS011;57248;47.320;15.998;2023-03-01T10:32:17;17.42;;;6.70;;
69937;SDS011;57248;47.320;15.998;2023-03-01T10:34:51;16.23;;;6.40;;
69937;SDS011;57248;47.320;15.998;2023-03-01T10:37:23;14.82;;;5.85;;
69937;SDS011;57248;47.320;15.998;2023-03-01T10:39:58;14.82;;;6.38;;
69937;SDS011;57248;47.320;15.998;2023-03-01T10:42:30;14.93;;;6.60;;
69937;SDS011;57248;47.320;15.998;2023-03-01T10:50:45;16.88;;;6.78;;
69937;SDS011;57248;47.320;15.998;2023-03-01T10:56:10;14.13;;;6.20;;
69937;SDS011;57248;47.320;15.998;2023-03-01T10:59:01;14.82;;;6.38;;
69937;SDS011;57248;47.320;15.998;2023-03-01T11:01:36;16.13;;;6.87;;
69937;SDS011;57248;47.320;15.998;2023-03-01T11:06:43;16.70;;;6.80;;
69937;SDS011;57248;47.320;15.998;2023-03-01T11:09:19;17.77;;;7.00;;
69937;SDS011;57248;47.320;15.998;2023-03-01T11:11:56;14.82;;;6.25;;
69937;SDS011;57248;47.320;15.998;2023-03-01T11:14:23;14.80;;;6.40;;
69937;SDS011;57248;47.320;15.998;2023-03-01T11:19:36;17.50;;;6.65;;
69937;SDS011;57248;47.320;15.998;2023-03-01T11:22:12;16.20;;;6.10;;
69937;SDS011;57248;47.320;15.998;2023-03-01T11:24:53;17.08;;;6.72;;
69937;SDS011;57248;47.320;15.998;2023-03-01T11:27:38;16.93;;;6.47;;
69937;SDS011;57248;47.320;15.998;2023-03-01T11:30:21;15.82;;;6.20;;
69937;SDS011;57248;47.320;15.998;2023-03-01T11:35:47;14.15;;;5.57;;
69937;SDS011;57248;47.320;15.998;2023-03-01T11:38:28;16.80;;;6.32;;
69937;SDS011;57248;47.320;15.998;2023-03-01T11:44:16;15.13;;;6.32;;
69937;SDS011;57248;47.320;15.998;2023-03-01T11:58:53;14.35;;;6.30;;
69937;SDS011;57248;47.320;15.998;2023-03-01T12:01:48;15.73;;;6.93;;
69937;SDS011;57248;47.320;15.998;2023-03-01T12:04:50;15.45;;;6.70;;
69937;SDS011;57248;47.320;15.998;2023-03-01T12:10:49;15.40;;;6.43;;
69937;SDS011;57248;47.320;15.998;2023-03-01T12:37:41;15.90;;;6.75;;
69937;SDS011;57248;47.320;15.998;2023-03-01T12:49:05;12.20;;;6.38;;
69937;SDS011;57248;47.320;15.998;2023-03-01T12:52:08;11.93;;;5.50;;
69937;SDS011;57248;47.320;15.998;2023-03-01T12:54:44;13.30;;;5.50;;
69937;SDS011;57248;47.320;15.998;2023-03-01T13:00:01;11.45;;;5.35;;
69937;SDS011;57248;47.320;15.998;2023-03-01T13:03:02;12.10;;;5.40;;
69937;SDS011;57248;47.320;15.998;2023-03-01T13:06:05;10.13;;;4.88;;
69937;SDS011;57248;47.320;15.998;2023-03-01T13:11:22;11.48;;;5.10;;
69937;SDS011;57248;47.320;15.998;2023-03-01T13:16:52;11.65;;;4.80;;
69937;SDS011;57248;47.320;15.998;2023-03-01T13:19:23;12.85;;;4.60;;
69937;SDS011;57248;47.320;15.998;2023-03-01T13:21:58;9.83;;;4.20;;
69937;SDS011;57248;47.320;15.998;2023-03-01T13:24:39;9.55;;;4.30;;
69937;SDS011;57248;47.320;15.998;2023-03-01T13:32:30;9.20;;;3.47;;
69937;SDS011;57248;47.320;15.998;2023-03-01T13:37:46;10.73;;;4.28;;
69937;SDS011;57248;47.320;15.998;2023-03-01T13:42:51;10.43;;;4.22;;
69937;SDS011;57248;47.320;15.998;2023-03-01T13:45:40;9.82;;;4.50;;
69937;SDS011;57248;47.320;15.998;2023-03-01T13:48:22;11.70;;;4.17;;
69937;SDS011;57248;47.320;15.998;2023-03-01T13:50:58;10.45;;;4.20;;
69937;SDS011;57248;47.320;15.998;2023-03-01T13:53:45;10.77;;;4.45;;
69937;SDS011;57248;47.320;15.998;2023-03-01T13:56:20;11.02;;;4.03;;
69937;SDS011;57248;47.320;15.998;2023-03-01T13:58:59;10.73;;;4.13;;
69937;SDS011;57248;47.320;15.998;2023-03-01T14:01:36;10.60;;;4.30;;
69937;SDS011;57248;47.320;15.998;2023-03-01T14:04:20;12.75;;;4.38;;
69937;SDS011;57248;47.320;15.998;2023-03-01T14:07:11;11.07;;;4.70;;
69937;SDS011;57248;47.320;15.998;2023-03-01T14:09:44;12.60;;;4.47;;
69937;SDS011;57248;47.320;15.998;2023-03-01T14:20:19;11.23;;;4.15;;
69937;SDS011;57248;47.320;15.998;2023-03-01T14:22:55;9.80;;;3.70;;
69937;SDS011;57248;47.320;15.998;2023-03-01T14:28:18;8.30;;;2.20;;
69937;SDS011;57248;47.320;15.998;2023-03-01T14:30:54;6.88;;;2.30;;
69937;SDS011;57248;47.320;15.998;2023-03-01T14:33:35;7.10;;;2.30;;
69937;SDS011;57248;47.320;15.998;2023-03-01T14:36:13;6.97;;;2.13;;
69937;SDS011;57248;47.320;15.998;2023-03-01T14:38:46;7.28;;;1.80;;
69937;SDS011;57248;47.320;15.998;2023-03-01T14:41:21;7.23;;;2.03;;
69937;SDS011;57248;47.320;15.998;2023-03-01T14:43:55;5.10;;;1.65;;
69937;SDS011;57248;47.320;15.998;2023-03-01T14:46:40;6.72;;;2.03;;
69937;SDS011;57248;47.320;15.998;2023-03-01T14:49:19;8.48;;;2.40;;
69937;SDS011;57248;47.320;15.998;2023-03-01T14:52:39;7.05;;;2.33;;
69937;SDS011;57248;47.320;15.998;2023-03-01T14:55:05;9.20;;;2.73;;
69937;SDS011;57248;47.320;15.998;2023-03-01T14:57:44;8.70;;;2.75;;
69937;SDS011;57248;47.320;15.998;2023-03-01T15:00:21;8.45;;;3.15;;
69937;SDS011;57248;47.320;15.998;2023-03-01T15:02:58;9.18;;;2.70;;
69937;SDS011;57248;47.320;15.998;2023-03-01T15:05:41;7.93;;;2.70;;
69937;SDS011;57248;47.320;15.998;2023-03-01T15:08:17;13.67;;;3.03;;
69937;SDS011;57248;47.320;15.998;2023-03-01T15:10:57;10.30;;;3.17;;
69937;SDS011;57248;47.320;15.998;2023-03-01T15:13:33;9.68;;;3.13;;
69937;SDS011;57248;47.320;15.998;2023-03-01T15:16:10;9.73;;;3.20;;
69937;SDS011;57248;47.320;15.998;2023-03-01T15:18:45;9.48;;;3.20;;
69937;SDS011;57248;47.320;15.998;2023-03-01T15:21:25;9.80;;;3.33;;
69937;SDS011;57248;47.320;15.998;2023-03-01T15:26:56;12.48;;;3.78;;
69937;SDS011;57248;47.320;15.998;2023-03-01T15:29:33;9.57;;;3.10;;
69937;SDS011;57248;47.320;15.998;2023-03-01T15:35:00;11.30;;;3.80;;
69937;SDS011;57248;47.320;15.998;2023-03-01T15:37:52;10.23;;;3.65;;
69937;SDS011;57248;47.320;15.998;2023-03-01T15:40:25;8.20;;;3.30;;
69937;SDS011;57248;47.320;15.998;2023-03-01T15:43:21;11.88;;;4.53;;
69937;SDS011;57248;47.320;15.998;2023-03-01T15:46:15;10.20;;;3.60;;
69937;SDS011;57248;47.320;15.998;2023-03-01T15:52:13;10.98;;;3.42;;
69937;SDS011;57248;47.320;15.998;2023-03-01T15:55:18;11.13;;;3.70;;
69937;SDS011;57248;47.320;15.998;2023-03-01T15:58:14;11.35;;;4.07;;
69937;SDS011;57248;47.320;15.998;2023-03-01T16:00:48;15.32;;;4.63;;
69937;SDS011;57248;47.320;15.998;2023-03-01T16:03:23;10.20;;;3.27;;
69937;SDS011;57248;47.320;15.998;2023-03-01T16:05:55;9.23;;;3.30;;
69937;SDS011;57248;47.320;15.998;2023-03-01T16:08:27;10.07;;;3.63;;
69937;SDS011;57248;47.320;15.998;2023-03-01T16:10:59;9.63;;;3.53;;
69937;SDS011;57248;47.320;15.998;2023-03-01T16:13:31;10.75;;;3.30;;
69937;SDS011;57248;47.320;15.998;2023-03-01T16:16:03;9.53;;;2.87;;
69937;SDS011;57248;47.320;15.998;2023-03-01T16:18:35;9.85;;;3.50;;
69937;SDS011;57248;47.320;15.998;2023-03-01T16:21:09;10.68;;;3.40;;
69937;SDS011;57248;47.320;15.998;2023-03-01T16:23:47;10.82;;;4.05;;
69937;SDS011;57248;47.320;15.998;2023-03-01T16:26:20;11.90;;;4.15;;
69937;SDS011;57248;47.320;15.998;2023-03-01T16:28:54;10.07;;;3.90;;
69937;SDS011;57248;47.320;15.998;2023-03-01T16:31:21;11.70;;;3.90;;
69937;SDS011;57248;47.320;15.998;2023-03-01T16:33:56;12.18;;;4.45;;
69937;SDS011;57248;47.320;15.998;2023-03-01T16:36:23;11.93;;;4.45;;
69937;SDS011;57248;47.320;15.998;2023-03-01T16:38:58;12.88;;;5.00;;
69937;SDS011;57248;47.320;15.998;2023-03-01T16:41:32;15.97;;;5.80;;
69937;SDS011;57248;47.320;15.998;2023-03-01T16:44:05;14.63;;;5.65;;
69937;SDS011;57248;47.320;15.998;2023-03-01T16:46:37;17.17;;;5.97;;
69937;SDS011;57248;47.320;15.998;2023-03-01T16:49:09;16.10;;;6.47;;
69937;SDS011;57248;47.320;15.998;2023-03-01T16:51:43;15.65;;;6.05;;
69937;SDS011;57248;47.320;15.998;2023-03-01T16:54:23;20.07;;;6.90;;
69937;SDS011;57248;47.320;15.998;2023-03-01T16:56:55;13.82;;;5.80;;
69937;SDS011;57248;47.320;15.998;2023-03-01T16:59:27;16.35;;;6.57;;
69937;SDS011;57248;47.320;15.998;2023-03-01T17:02:00;15.02;;;6.00;;
69937;SDS011;57248;47.320;15.998;2023-03-01T17:04:32;19.50;;;7.22;;
69937;SDS011;57248;47.320;15.998;2023-03-01T17:07:05;15.97;;;6.37;;
69937;SDS011;57248;47.320;15.998;2023-03-01T17:09:37;15.27;;;6.60;;